Time,TemperatureF,DewpointF,PressureIn,WindDirection,WindDirectionDegrees,WindSpeedMPH,WindSpeedGustMPH,Humidity,HourlyPrecipIn,Conditions,Clouds,dailyrainin,SoftwareType,DateUTC
2013-03-27 00:00:00,26.4,15.9,30.25,North,1,0.0,0.0,64,0.00,CLR,OVC,0.00,WeatherDisplay:10.37,2013-03-27 05:00:00,
2013-03-27 00:05:00,26.2,15.7,30.25,North,1,0.0,0.0,64,0.00,CLR,OVC,0.00,WeatherDisplay:10.37,2013-03-27 05:05:00,
2013-03-27 00:10:00,26.1,15.5,30.26,North,1,0.0,0.0,64,0.00,CLR,OVC,0.00,WeatherDisplay:10.37,2013-03-27 05:10:00,
2013-03-27 00:15:00,26.1,15.5,30.26,North,1,0.0,0.0,64,0.00,CLR,OVC,0.00,WeatherDisplay:10.37,2013-03-27 05:15:00,
2013-03-27 00:20:00,26.1,15.5,30.26,North,1,0.0,0.0,64,0.00,CLR,OVC,0.00,WeatherDisplay:10.37,2013-03-27 05:20:00,
2013-03-27 00:25:00,26.1,15.5,30.26,North,1,0.0,0.0,64,0.00,CLR,OVC,0.00,WeatherDisplay:10.37,2013-03-27 05:25:00,
2013-03-27 00:30:00,26.1,15.5,30.26,North,1,0.0,0.0,64,0.00,CLR,OVC,0.00,WeatherDisplay:10.37,2013-03-27 05:30:00,
2013-03-27 00:35:00,26.1,15.5,30.27,North,1,0.0,0.0,64,0.00,CLR,OVC,0.00,WeatherDisplay:10.37,2013-03-27 05:35:00,
2013-03-27 00:40:00,26.1,15.5,30.27,North,1,0.0,0.0,64,0.00,CLR,OVC,0.00,WeatherDisplay:10.37,2013-03-27 05:40:00,
2013-03-27 00:45:00,26.1,15.5,30.27,North,1,0.0,0.0,64,0.00,CLR,OVC,0.00,WeatherDisplay:10.37,2013-03-27 05:45:00,
2013-03-27 00:50:00,26.1,15.5,30.27,North,1,0.0,0.0,64,0.00,CLR,OVC,0.00,WeatherDisplay:10.37,2013-03-27 05:50:00,
2013-03-27 00:55:00,26.2,15.7,30.26,North,1,0.0,0.0,64,0.00,CLR,OVC,0.00,WeatherDisplay:10.37,2013-03-27 05:55:00,
2013-03-27 01:00:00,26.1,15.5,30.26,North,1,0.0,0.0,64,0.00,CLR,OVC,0.00,WeatherDisplay:10.37,2013-03-27 06:00:00,
2013-03-27 01:05:00,26.1,15.5,30.26,North,1,0.0,0.0,64,0.00,CLR,OVC,0.00,WeatherDisplay:10.37,2013-03-27 06:05:00,
2013-03-27 01:10:00,26.1,15.9,30.26,North,1,0.0,0.0,65,0.00,CLR,OVC,0.00,WeatherDisplay:10.37,2013-03-27 06:10:00,
2013-03-27 01:15:00,25.7,15.6,30.26,North,1,0.0,0.0,65,0.00,CLR,OVC,0.00,WeatherDisplay:10.37,2013-03-27 06:15:00,
2013-03-27 01:20:00,25.7,15.6,30.26,North,1,0.0,0.0,65,0.00,CLR,OVC,0.00,WeatherDisplay:10.37,2013-03-27 06:20:00,
2013-03-27 01:25:00,25.7,15.6,30.26,North,1,0.0,0.0,65,0.00,CLR,OVC,0.00,WeatherDisplay:10.37,2013-03-27 06:25:00,
2013-03-27 01:30:00,25.9,15.7,30.26,North,1,0.0,0.0,65,0.00,CLR,OVC,0.00,WeatherDisplay:10.37,2013-03-27 06:30:00,
2013-03-27 01:35:00,25.9,15.7,30.26,North,1,0.0,0.0,65,0.00,CLR,OVC,0.00,WeatherDisplay:10.37,2013-03-27 06:35:00,
2013-03-27 01:40:00,25.9,15.7,30.27,North,1,0.0,0.0,65,0.00,CLR,OVC,0.00,WeatherDisplay:10.37,2013-03-27 06:40:00,
2013-03-27 01:45:00,25.9,15.7,30.27,North,1,0.0,0.0,65,0.00,CLR,OVC,0.00,WeatherDisplay:10.37,2013-03-27 06:45:00,
2013-03-27 01:50:00,26.1,15.9,30.26,North,1,0.0,0.0,65,0.00,CLR,OVC,0.00,WeatherDisplay:10.37,2013-03-27 06:50:00,
2013-03-27 01:55:00,26.1,15.9,30.26,North,1,0.0,0.0,65,0.00,CLR,OVC,0.00,WeatherDisplay:10.37,2013-03-27 06:55:00,
2013-03-27 02:00:00,26.1,15.9,30.26,North,1,0.0,0.0,65,0.00,CLR,OVC,0.00,WeatherDisplay:10.37,2013-03-27 07:00:00,
2013-03-27 02:05:00,25.9,15.7,30.26,North,1,0.0,0.0,65,0.00,CLR,OVC,0.00,WeatherDisplay:10.37,2013-03-27 07:05:00,
2013-03-27 02:10:00,25.7,15.9,30.26,North,1,0.0,0.0,66,0.00,CLR,OVC,0.00,WeatherDisplay:10.37,2013-03-27 07:10:00,
2013-03-27 02:15:00,25.7,15.9,30.25,North,1,0.0,0.0,66,0.00,CLR,OVC,0.00,WeatherDisplay:10.37,2013-03-27 07:15:00,
2013-03-27 02:20:00,25.5,15.7,30.25,North,1,0.0,0.0,66,0.00,CLR,OVC,0.00,WeatherDisplay:10.37,2013-03-27 07:20:00,
2013-03-27 02:25:00,25.5,15.7,30.25,North,1,0.0,0.0,66,0.00,CLR,OVC,0.00,WeatherDisplay:10.37,2013-03-27 07:25:00,
2013-03-27 02:30:00,25.5,15.7,30.25,North,1,0.0,0.0,66,0.00,CLR,OVC,0.00,WeatherDisplay:10.37,2013-03-27 07:30:00,
2013-03-27 02:35:00,25.5,15.7,30.25,North,1,0.0,0.0,66,0.00,CLR,OVC,0.00,WeatherDisplay:10.37,2013-03-27 07:35:00,
2013-03-27 02:40:00,25.5,15.7,30.25,North,1,0.0,0.0,66,0.00,CLR,OVC,0.00,WeatherDisplay:10.37,2013-03-27 07:40:00,
2013-03-27 02:45:00,25.5,15.7,30.25,North,1,0.0,0.0,66,0.00,CLR,OVC,0.00,WeatherDisplay:10.37,2013-03-27 07:45:00,
2013-03-27 02:50:00,25.5,15.7,30.24,North,1,0.0,0.0,66,0.00,CLR,OVC,0.00,WeatherDisplay:10.37,2013-03-27 07:50:00,
2013-03-27 02:55:00,25.5,15.7,30.24,North,1,0.0,0.0,66,0.00,CLR,OVC,0.00,WeatherDisplay:10.37,2013-03-27 07:55:00,
2013-03-27 03:00:00,25.5,15.7,30.24,North,1,0.0,0.0,66,0.00,CLR,OVC,0.00,WeatherDisplay:10.37,2013-03-27 08:00:00,
2013-03-27 03:05:00,25.3,15.6,30.24,North,1,0.0,0.0,66,0.00,CLR,OVC,0.00,WeatherDisplay:10.37,2013-03-27 08:05:00,
2013-03-27 03:10:00,25.3,15.6,30.24,North,1,0.0,0.0,66,0.00,CLR,OVC,0.00,WeatherDisplay:10.37,2013-03-27 08:10:00,
2013-03-27 03:15:00,25.3,15.6,30.24,North,1,0.0,0.0,66,0.00,CLR,OVC,0.00,WeatherDisplay:10.37,2013-03-27 08:15:00,
2013-03-27 03:20:00,25.3,15.9,30.24,North,1,0.0,0.0,67,0.00,CLR,OVC,0.00,WeatherDisplay:10.37,2013-03-27 08:20:00,
2013-03-27 03:25:00,25.2,15.7,30.24,North,1,0.0,0.0,67,0.00,CLR,OVC,0.00,WeatherDisplay:10.37,2013-03-27 08:25:00,
2013-03-27 03:30:00,25.0,15.6,30.24,North,1,0.0,0.0,67,0.00,CLR,OVC,0.00,WeatherDisplay:10.37,2013-03-27 08:30:00,
2013-03-27 03:35:00,25.0,15.6,30.24,North,1,0.0,0.0,67,0.00,CLR,OVC,0.00,WeatherDisplay:10.37,2013-03-27 08:35:00,
2013-03-27 03:40:00,25.0,15.9,30.24,North,1,0.0,0.0,68,0.00,CLR,OVC,0.00,WeatherDisplay:10.37,2013-03-27 08:40:00,
2013-03-27 03:45:00,25.2,16.1,30.24,North,1,0.0,0.0,68,0.00,CLR,OVC,0.00,WeatherDisplay:10.37,2013-03-27 08:45:00,
2013-03-27 03:50:00,25.3,16.2,30.24,North,1,0.0,0.0,68,0.00,CLR,OVC,0.00,WeatherDisplay:10.37,2013-03-27 08:50:00,
2013-03-27 03:55:00,25.3,16.2,30.24,North,1,0.0,0.0,68,0.00,CLR,OVC,0.00,WeatherDisplay:10.37,2013-03-27 08:55:00,
2013-03-27 04:00:00,25.5,16.4,30.24,North,1,0.0,0.0,68,0.00,CLR,OVC,0.00,WeatherDisplay:10.37,2013-03-27 09:00:00,
2013-03-27 04:05:00,25.5,16.4,30.24,North,1,0.0,0.0,68,0.00,CLR,OVC,0.00,WeatherDisplay:10.37,2013-03-27 09:05:00,
2013-03-27 04:10:00,25.7,16.6,30.24,North,1,0.0,0.0,68,0.00,CLR,OVC,0.00,WeatherDisplay:10.37,2013-03-27 09:10:00,
2013-03-27 04:15:00,25.9,17.1,30.24,North,1,0.0,0.0,69,0.00,CLR,OVC,0.00,WeatherDisplay:10.37,2013-03-27 09:15:00,
2013-03-27 04:20:00,25.9,17.1,30.23,North,1,0.0,0.0,69,0.00,CLR,OVC,0.00,WeatherDisplay:10.37,2013-03-27 09:20:00,
2013-03-27 04:25:00,26.1,16.9,30.24,North,1,0.0,0.0,68,0.00,CLR,OVC,0.00,WeatherDisplay:10.37,2013-03-27 09:25:00,
2013-03-27 04:30:00,25.9,16.8,30.24,North,1,0.0,0.0,68,0.00,CLR,OVC,0.00,WeatherDisplay:10.37,2013-03-27 09:30:00,
2013-03-27 04:35:00,25.9,17.1,30.24,North,1,0.0,0.0,69,0.00,CLR,OVC,0.00,WeatherDisplay:10.37,2013-03-27 09:35:00,
2013-03-27 04:40:00,26.1,17.3,30.24,North,1,0.0,0.0,69,0.00,CLR,OVC,0.00,WeatherDisplay:10.37,2013-03-27 09:40:00,
2013-03-27 04:45:00,26.2,17.4,30.24,North,1,0.0,0.0,69,0.00,CLR,OVC,0.00,WeatherDisplay:10.37,2013-03-27 09:45:00,
2013-03-27 04:50:00,26.2,17.4,30.24,North,1,0.0,0.0,69,0.00,CLR,OVC,0.00,WeatherDisplay:10.37,2013-03-27 09:50:00,
2013-03-27 04:55:00,26.4,17.6,30.24,North,1,0.0,0.0,69,0.00,CLR,OVC,0.00,WeatherDisplay:10.37,2013-03-27 09:55:00,
2013-03-27 05:00:00,26.4,17.6,30.24,North,1,0.0,0.0,69,0.00,CLR,OVC,0.00,WeatherDisplay:10.37,2013-03-27 10:00:00,
2013-03-27 05:05:00,26.6,17.8,30.24,North,1,0.0,0.0,69,0.00,CLR,OVC,0.00,WeatherDisplay:10.37,2013-03-27 10:05:00,
2013-03-27 05:10:00,26.8,18.0,30.24,North,1,0.0,0.0,69,0.00,CLR,OVC,0.00,WeatherDisplay:10.37,2013-03-27 10:10:00,
2013-03-27 05:15:00,27.0,18.1,30.24,North,1,0.0,0.0,69,0.00,CLR,OVC,0.00,WeatherDisplay:10.37,2013-03-27 10:15:00,
2013-03-27 05:20:00,27.1,18.3,30.24,North,1,0.0,0.0,69,0.00,CLR,OVC,0.00,WeatherDisplay:10.37,2013-03-27 10:20:00,
2013-03-27 05:25:00,27.1,18.3,30.24,North,1,0.0,0.0,69,0.00,CLR,OVC,0.00,WeatherDisplay:10.37,2013-03-27 10:25:00,
2013-03-27 05:30:00,27.3,18.5,30.24,North,1,0.0,0.0,69,0.00,CLR,OVC,0.00,WeatherDisplay:10.37,2013-03-27 10:30:00,
2013-03-27 05:35:00,27.3,18.1,30.24,North,1,0.0,0.0,68,0.00,CLR,OVC,0.00,WeatherDisplay:10.37,2013-03-27 10:35:00,
2013-03-27 05:40:00,27.3,18.1,30.24,North,1,0.0,0.0,68,0.00,CLR,OVC,0.00,WeatherDisplay:10.37,2013-03-27 10:40:00,
2013-03-27 05:45:00,27.3,18.1,30.24,North,1,0.0,0.0,68,0.00,CLR,OVC,0.00,WeatherDisplay:10.37,2013-03-27 10:45:00,
2013-03-27 05:50:00,27.3,18.1,30.24,North,1,0.0,0.0,68,0.00,CLR,OVC,0.00,WeatherDisplay:10.37,2013-03-27 10:50:00,
2013-03-27 05:55:00,27.3,18.1,30.24,North,1,0.0,0.0,68,0.00,CLR,OVC,0.00,WeatherDisplay:10.37,2013-03-27 10:55:00,
2013-03-27 06:00:00,27.3,18.1,30.24,North,1,0.0,0.0,68,0.00,CLR,OVC,0.00,WeatherDisplay:10.37,2013-03-27 11:00:00,
2013-03-27 06:05:00,27.3,18.1,30.25,North,1,0.0,0.0,68,0.00,CLR,OVC,0.00,WeatherDisplay:10.37,2013-03-27 11:05:00,
2013-03-27 06:10:00,27.3,18.1,30.25,North,1,0.0,0.0,68,0.00,CLR,OVC,0.00,WeatherDisplay:10.37,2013-03-27 11:10:00,
2013-03-27 06:15:00,27.3,18.1,30.25,North,1,0.0,0.0,68,0.00,CLR,OVC,0.00,WeatherDisplay:10.37,2013-03-27 11:15:00,
2013-03-27 06:20:00,27.3,18.1,30.25,North,1,0.0,0.0,68,0.00,CLR,OVC,0.00,WeatherDisplay:10.37,2013-03-27 11:20:00,
2013-03-27 06:25:00,27.3,18.5,30.25,North,1,0.0,0.0,69,0.00,CLR,OVC,0.00,WeatherDisplay:10.37,2013-03-27 11:25:00,
2013-03-27 06:30:00,27.3,18.5,30.25,North,1,0.0,0.0,69,0.00,CLR,OVC,0.00,WeatherDisplay:10.37,2013-03-27 11:30:00,
2013-03-27 06:35:00,27.5,18.7,30.25,North,1,0.0,0.0,69,0.00,CLR,OVC,0.00,WeatherDisplay:10.37,2013-03-27 11:35:00,
2013-03-27 06:40:00,27.7,18.8,30.25,North,1,0.0,0.0,69,0.00,CLR,OVC,0.00,WeatherDisplay:10.37,2013-03-27 11:40:00,
2013-03-27 06:45:00,27.7,18.8,30.26,North,1,0.0,0.0,69,0.00,CLR,OVC,0.00,WeatherDisplay:10.37,2013-03-27 11:45:00,
2013-03-27 06:50:00,27.7,18.8,30.25,North,1,0.0,0.0,69,0.00,CLR,OVC,0.00,WeatherDisplay:10.37,2013-03-27 11:50:00,
2013-03-27 06:55:00,27.7,18.8,30.25,North,1,0.0,0.0,69,0.00,CLR,OVC,0.00,WeatherDisplay:10.37,2013-03-27 11:55:00,
2013-03-27 07:00:00,27.7,18.8,30.25,North,1,0.0,0.0,69,0.00,CLR,OVC,0.00,WeatherDisplay:10.37,2013-03-27 12:00:00,
2013-03-27 07:05:00,27.9,19.3,30.25,North,1,0.0,0.0,70,0.00,CLR,OVC,0.00,WeatherDisplay:10.37,2013-03-27 12:05:00,
2013-03-27 07:10:00,27.9,19.3,30.25,North,1,0.0,0.0,70,0.00,CLR,OVC,0.00,WeatherDisplay:10.37,2013-03-27 12:10:00,
2013-03-27 07:15:00,28.0,19.5,30.25,North,1,0.0,0.0,70,0.00,CLR,OVC,0.00,WeatherDisplay:10.37,2013-03-27 12:15:00,
2013-03-27 07:20:00,28.0,19.5,30.26,North,1,0.0,0.0,70,0.00,CLR,OVC,0.00,WeatherDisplay:10.37,2013-03-27 12:20:00,
2013-03-27 07:25:00,28.2,19.7,30.25,North,1,0.0,0.0,70,0.00,CLR,OVC,0.00,WeatherDisplay:10.37,2013-03-27 12:25:00,
2013-03-27 07:30:00,28.2,19.7,30.25,North,1,0.0,0.0,70,0.00,CLR,OVC,0.00,WeatherDisplay:10.37,2013-03-27 12:30:00,
2013-03-27 07:35:00,28.4,19.9,30.25,North,1,0.0,0.0,70,0.00,CLR,OVC,0.00,WeatherDisplay:10.37,2013-03-27 12:35:00,
2013-03-27 07:40:00,28.4,19.9,30.25,North,1,0.0,0.0,70,0.00,CLR,OVC,0.00,WeatherDisplay:10.37,2013-03-27 12:40:00,
2013-03-27 07:45:00,28.6,20.0,30.24,North,1,0.0,0.0,70,0.00,CLR,OVC,0.00,WeatherDisplay:10.37,2013-03-27 12:45:00,
2013-03-27 07:50:00,28.8,20.2,30.24,North,1,0.0,0.0,70,0.00,CLR,OVC,0.00,WeatherDisplay:10.37,2013-03-27 12:50:00,
2013-03-27 07:55:00,28.9,20.4,30.24,North,1,0.0,0.0,70,0.00,CLR,OVC,0.00,WeatherDisplay:10.37,2013-03-27 12:55:00,
2013-03-27 08:00:00,29.1,20.6,30.24,North,1,0.0,0.0,70,0.00,CLR,OVC,0.00,WeatherDisplay:10.37,2013-03-27 13:00:00,
2013-03-27 08:05:00,29.1,20.6,30.24,North,1,0.0,0.0,70,0.00,CLR,OVC,0.00,WeatherDisplay:10.37,2013-03-27 13:05:00,
2013-03-27 08:10:00,29.3,20.7,30.24,North,1,0.0,0.0,70,0.00,CLR,OVC,0.00,WeatherDisplay:10.37,2013-03-27 13:10:00,
2013-03-27 08:15:00,29.5,20.9,30.24,North,1,0.0,0.0,70,0.00,CLR,OVC,0.00,WeatherDisplay:10.37,2013-03-27 13:15:00,
2013-03-27 08:20:00,29.7,21.1,30.24,North,1,0.0,0.0,70,0.00,CLR,OVC,0.00,WeatherDisplay:10.37,2013-03-27 13:20:00,
2013-03-27 08:25:00,29.8,21.2,30.24,North,1,0.0,0.0,70,0.00,CLR,OVC,0.00,WeatherDisplay:10.37,2013-03-27 13:25:00,
2013-03-27 08:30:00,30.0,21.4,30.24,North,1,0.0,0.0,70,0.00,CLR,OVC,0.00,WeatherDisplay:10.37,2013-03-27 13:30:00,
2013-03-27 08:35:00,30.2,21.6,30.24,North,1,0.0,0.0,70,0.00,CLR,OVC,0.00,WeatherDisplay:10.37,2013-03-27 13:35:00,
2013-03-27 08:40:00,30.4,21.4,30.24,North,1,0.0,0.0,69,0.00,CLR,OVC,0.00,WeatherDisplay:10.37,2013-03-27 13:40:00,
2013-03-27 08:45:00,30.7,21.8,30.24,North,1,0.0,0.0,69,0.00,CLR,OVC,0.00,WeatherDisplay:10.37,2013-03-27 13:45:00,
2013-03-27 08:50:00,30.9,21.9,30.24,North,1,0.0,0.0,69,0.00,CLR,OVC,0.00,WeatherDisplay:10.37,2013-03-27 13:50:00,
2013-03-27 08:55:00,31.3,22.3,30.23,North,1,0.0,0.0,69,0.00,CLR,OVC,0.00,WeatherDisplay:10.37,2013-03-27 13:55:00,
2013-03-27 09:00:00,31.3,22.3,30.24,North,1,0.0,0.0,69,0.00,CLR,OVC,0.00,WeatherDisplay:10.37,2013-03-27 14:00:00,
2013-03-27 09:05:00,31.5,22.5,30.24,North,1,0.0,0.0,69,0.00,CLR,OVC,0.00,WeatherDisplay:10.37,2013-03-27 14:05:00,
2013-03-27 09:10:00,31.6,22.3,30.24,North,1,0.0,0.0,68,0.00,CLR,OVC,0.00,WeatherDisplay:10.37,2013-03-27 14:10:00,
2013-03-27 09:15:00,31.8,22.5,30.24,North,1,0.0,0.0,68,0.00,CLR,OVC,0.00,WeatherDisplay:10.37,2013-03-27 14:15:00,
2013-03-27 09:20:00,32.0,22.6,30.24,North,1,0.0,0.0,68,0.00,CLR,OVC,0.00,WeatherDisplay:10.37,2013-03-27 14:20:00,
2013-03-27 09:25:00,32.0,22.6,30.25,North,1,0.0,0.0,68,0.00,CLR,OVC,0.00,WeatherDisplay:10.37,2013-03-27 14:25:00,
2013-03-27 09:30:00,32.2,22.8,30.25,North,1,0.0,0.0,68,0.00,CLR,OVC,0.00,WeatherDisplay:10.37,2013-03-27 14:30:00,
2013-03-27 09:35:00,32.4,23.0,30.25,North,1,0.0,0.0,68,0.00,CLR,OVC,0.00,WeatherDisplay:10.37,2013-03-27 14:35:00,
2013-03-27 09:40:00,32.7,23.3,30.25,North,1,0.0,0.0,68,0.00,CLR,OVC,0.00,WeatherDisplay:10.37,2013-03-27 14:40:00,
2013-03-27 09:45:00,33.3,23.8,30.24,North,1,0.0,0.0,68,0.00,CLR,OVC,0.00,WeatherDisplay:10.37,2013-03-27 14:45:00,
2013-03-27 09:50:00,33.4,24.0,30.25,North,1,0.0,0.0,68,0.00,CLR,OVC,0.00,WeatherDisplay:10.37,2013-03-27 14:50:00,
2013-03-27 09:55:00,34.0,24.2,30.25,North,1,0.0,0.0,67,0.00,CLR,OVC,0.00,WeatherDisplay:10.37,2013-03-27 14:55:00,
2013-03-27 10:00:00,34.3,24.5,30.24,North,1,0.0,0.0,67,0.00,CLR,OVC,0.00,WeatherDisplay:10.37,2013-03-27 15:00:00,
2013-03-27 10:05:00,34.5,24.7,30.24,North,1,0.0,0.0,67,0.00,CLR,OVC,0.00,WeatherDisplay:10.37,2013-03-27 15:05:00,
2013-03-27 10:10:00,34.9,25.0,30.24,North,1,0.0,0.0,67,0.00,CLR,OVC,0.00,WeatherDisplay:10.37,2013-03-27 15:10:00,
2013-03-27 10:15:00,35.1,24.8,30.24,North,1,0.0,0.0,66,0.00,CLR,OVC,0.00,WeatherDisplay:10.37,2013-03-27 15:15:00,
2013-03-27 10:20:00,35.2,24.6,30.24,North,1,0.0,0.0,65,0.00,CLR,OVC,0.00,WeatherDisplay:10.37,2013-03-27 15:20:00,
2013-03-27 10:25:00,35.2,24.6,30.24,North,1,0.0,0.0,65,0.00,CLR,OVC,0.00,WeatherDisplay:10.37,2013-03-27 15:25:00,
2013-03-27 10:30:00,35.6,25.0,30.24,North,1,0.0,0.0,65,0.00,CLR,OVC,0.00,WeatherDisplay:10.37,2013-03-27 15:30:00,
2013-03-27 10:35:00,36.1,25.5,30.24,North,1,0.0,0.0,65,0.00,CLR,OVC,0.00,WeatherDisplay:10.37,2013-03-27 15:35:00,
2013-03-27 10:40:00,36.1,25.5,30.24,North,1,0.0,0.0,65,0.00,CLR,OVC,0.00,WeatherDisplay:10.37,2013-03-27 15:40:00,
2013-03-27 10:45:00,37.0,26.0,30.24,North,1,0.0,0.0,64,0.00,CLR,OVC,0.00,WeatherDisplay:10.37,2013-03-27 15:45:00,
2013-03-27 10:50:00,37.6,26.1,30.23,North,1,0.0,0.0,63,0.00,CLR,OVC,0.00,WeatherDisplay:10.37,2013-03-27 15:50:00,
2013-03-27 10:55:00,38.1,26.6,30.24,North,1,0.0,0.0,63,0.00,CLR,OVC,0.00,WeatherDisplay:10.37,2013-03-27 15:55:00,
2013-03-27 11:00:00,39.0,26.7,30.24,North,1,0.0,0.0,61,0.00,CLR,OVC,0.00,WeatherDisplay:10.37,2013-03-27 16:00:00,
2013-03-27 11:05:00,39.6,27.2,30.24,North,1,0.0,0.0,61,0.00,CLR,OVC,0.00,WeatherDisplay:10.37,2013-03-27 16:05:00,
2013-03-27 11:10:00,40.6,27.8,30.24,North,1,0.0,0.0,60,0.00,CLR,OVC,0.00,WeatherDisplay:10.37,2013-03-27 16:10:00,
2013-03-27 11:15:00,41.5,28.3,30.23,North,1,0.0,0.0,59,0.00,CLR,OVC,0.00,WeatherDisplay:10.37,2013-03-27 16:15:00,
2013-03-27 11:20:00,42.3,28.9,30.23,North,1,0.0,0.0,59,0.00,CLR,OVC,0.00,WeatherDisplay:10.37,2013-03-27 16:20:00,
2013-03-27 11:25:00,43.0,28.8,30.23,North,1,0.0,0.0,57,0.00,CLR,OVC,0.00,WeatherDisplay:10.37,2013-03-27 16:25:00,
2013-03-27 11:30:00,43.5,28.8,30.23,North,1,0.0,0.0,56,0.00,CLR,OVC,0.00,WeatherDisplay:10.37,2013-03-27 16:30:00,
2013-03-27 11:35:00,43.9,28.7,30.23,North,1,0.0,0.0,55,0.00,CLR,OVC,0.00,WeatherDisplay:10.37,2013-03-27 16:35:00,
2013-03-27 11:40:00,44.1,28.9,30.24,North,1,0.0,0.0,55,0.00,CLR,OVC,0.00,WeatherDisplay:10.37,2013-03-27 16:40:00,
2013-03-27 11:45:00,45.1,29.5,30.24,North,1,0.0,0.0,54,0.00,CLR,OVC,0.00,WeatherDisplay:10.37,2013-03-27 16:45:00,
2013-03-27 11:50:00,45.3,29.6,30.24,North,1,0.0,0.0,54,0.00,CLR,OVC,0.00,WeatherDisplay:10.37,2013-03-27 16:50:00,
2013-03-27 11:55:00,45.1,29.5,30.24,North,1,0.0,0.0,54,0.00,CLR,OVC,0.00,WeatherDisplay:10.37,2013-03-27 16:55:00,
2013-03-27 12:00:00,44.8,29.1,30.24,North,1,0.0,0.0,54,0.00,CLR,OVC,0.00,WeatherDisplay:10.37,2013-03-27 17:00:00,
2013-03-27 12:05:00,44.8,29.1,30.24,North,1,0.0,0.0,54,0.00,CLR,OVC,0.00,WeatherDisplay:10.37,2013-03-27 17:05:00,
2013-03-27 12:10:00,45.3,29.6,30.24,North,1,0.0,0.0,54,0.00,CLR,OVC,0.00,WeatherDisplay:10.37,2013-03-27 17:10:00,
2013-03-27 12:15:00,45.3,29.6,30.24,North,1,0.0,0.0,54,0.00,CLR,OVC,0.00,WeatherDisplay:10.37,2013-03-27 17:15:00,
2013-03-27 12:20:00,45.3,29.2,30.24,North,1,0.0,0.0,53,0.00,CLR,OVC,0.00,WeatherDisplay:10.37,2013-03-27 17:20:00,
2013-03-27 12:25:00,47.1,30.4,30.24,North,1,0.0,0.0,52,0.00,CLR,OVC,0.00,WeatherDisplay:10.37,2013-03-27 17:25:00,
2013-03-27 12:30:00,47.1,29.9,30.24,North,1,0.0,0.0,51,0.00,CLR,OVC,0.00,WeatherDisplay:10.37,2013-03-27 17:30:00,
2013-03-27 12:35:00,46.9,29.7,30.24,North,1,0.0,0.0,51,0.00,CLR,OVC,0.00,WeatherDisplay:10.37,2013-03-27 17:35:00,
2013-03-27 12:40:00,46.8,29.6,30.24,North,1,0.0,0.0,51,0.00,CLR,OVC,0.00,WeatherDisplay:10.37,2013-03-27 17:40:00,
2013-03-27 12:45:00,46.6,29.4,30.24,North,1,0.0,0.0,51,0.00,CLR,OVC,0.00,WeatherDisplay:10.37,2013-03-27 17:45:00,
2013-03-27 12:50:00,46.2,29.1,30.22,North,1,0.0,0.0,51,0.00,CLR,OVC,0.00,WeatherDisplay:10.37,2013-03-27 17:50:00,
2013-03-27 12:55:00,46.0,29.4,30.22,North,1,0.0,0.0,52,0.00,CLR,OVC,0.00,WeatherDisplay:10.37,2013-03-27 17:55:00,
2013-03-27 13:00:00,45.7,29.0,30.22,North,1,0.0,0.0,52,0.00,CLR,OVC,0.00,WeatherDisplay:10.37,2013-03-27 18:00:00,
2013-03-27 13:05:00,45.3,28.7,30.22,North,1,0.0,0.0,52,0.00,CLR,OVC,0.00,WeatherDisplay:10.37,2013-03-27 18:05:00,
2013-03-27 13:10:00,44.8,28.7,30.21,North,1,0.0,0.0,53,0.00,CLR,OVC,0.00,WeatherDisplay:10.37,2013-03-27 18:10:00,
2013-03-27 13:15:00,44.2,28.2,30.22,North,1,0.0,0.0,53,0.00,CLR,OVC,0.00,WeatherDisplay:10.37,2013-03-27 18:15:00,
2013-03-27 13:20:00,43.5,27.5,30.21,North,1,0.0,0.0,53,0.00,CLR,OVC,0.00,WeatherDisplay:10.37,2013-03-27 18:20:00,
2013-03-27 13:25:00,42.6,27.1,30.21,North,1,0.0,0.0,54,0.00,CLR,OVC,0.00,WeatherDisplay:10.37,2013-03-27 18:25:00,
2013-03-27 13:30:00,42.4,27.4,30.21,North,1,0.0,0.0,55,0.00,CLR,OVC,0.00,WeatherDisplay:10.37,2013-03-27 18:30:00,
2013-03-27 13:35:00,42.6,27.6,30.21,North,1,0.0,0.0,55,0.00,CLR,OVC,0.00,WeatherDisplay:10.37,2013-03-27 18:35:00,
2013-03-27 13:40:00,42.6,27.6,30.20,North,1,0.0,0.0,55,0.00,CLR,OVC,0.00,WeatherDisplay:10.37,2013-03-27 18:40:00,
2013-03-27 13:45:00,43.0,27.9,30.20,North,1,0.0,0.0,55,0.00,CLR,OVC,0.00,WeatherDisplay:10.37,2013-03-27 18:45:00,
2013-03-27 13:50:00,43.3,28.2,30.19,North,1,0.0,0.0,55,0.00,CLR,OVC,0.00,WeatherDisplay:10.37,2013-03-27 18:50:00,
2013-03-27 13:55:00,43.5,28.4,30.19,North,1,0.0,0.0,55,0.00,CLR,OVC,0.00,WeatherDisplay:10.37,2013-03-27 18:55:00,
2013-03-27 14:00:00,44.4,29.2,30.19,North,1,0.0,0.0,55,0.00,CLR,OVC,0.00,WeatherDisplay:10.37,2013-03-27 19:00:00,
2013-03-27 14:05:00,45.1,29.5,30.18,North,1,0.0,0.0,54,0.00,CLR,OVC,0.00,WeatherDisplay:10.37,2013-03-27 19:05:00,
2013-03-27 14:10:00,45.3,29.2,30.18,North,1,0.0,0.0,53,0.00,CLR,OVC,0.00,WeatherDisplay:10.37,2013-03-27 19:10:00,
2013-03-27 14:15:00,45.1,29.0,30.18,North,1,0.0,0.0,53,0.00,CLR,OVC,0.00,WeatherDisplay:10.37,2013-03-27 19:15:00,
2013-03-27 14:20:00,45.9,29.7,30.18,North,1,0.0,0.0,53,0.00,CLR,OVC,0.00,WeatherDisplay:10.37,2013-03-27 19:20:00,
2013-03-27 14:25:00,46.0,29.8,30.17,North,1,0.0,0.0,53,0.00,CLR,OVC,0.00,WeatherDisplay:10.37,2013-03-27 19:25:00,
2013-03-27 14:30:00,46.0,29.8,30.17,North,1,0.0,0.0,53,0.00,CLR,OVC,0.00,WeatherDisplay:10.37,2013-03-27 19:30:00,
2013-03-27 14:35:00,46.6,29.9,30.17,North,1,0.0,0.0,52,0.00,CLR,OVC,0.00,WeatherDisplay:10.37,2013-03-27 19:35:00,
2013-03-27 14:40:00,46.6,29.4,30.17,North,1,0.0,0.0,51,0.00,CLR,OVC,0.00,WeatherDisplay:10.37,2013-03-27 19:40:00,
2013-03-27 14:45:00,46.6,29.4,30.17,North,1,0.0,0.0,51,0.00,CLR,OVC,0.00,WeatherDisplay:10.37,2013-03-27 19:45:00,
2013-03-27 14:50:00,46.9,29.7,30.17,North,1,0.0,0.0,51,0.00,CLR,OVC,0.00,WeatherDisplay:10.37,2013-03-27 19:50:00,
2013-03-27 14:55:00,47.1,29.9,30.17,North,1,0.0,0.0,51,0.00,CLR,OVC,0.00,WeatherDisplay:10.37,2013-03-27 19:55:00,
2013-03-27 15:00:00,47.1,29.9,30.16,North,1,0.0,0.0,51,0.00,CLR,OVC,0.00,WeatherDisplay:10.37,2013-03-27 20:00:00,
2013-03-27 15:05:00,47.1,29.9,30.16,North,1,0.0,0.0,51,0.00,CLR,OVC,0.00,WeatherDisplay:10.37,2013-03-27 20:05:00,
2013-03-27 15:10:00,47.1,29.9,30.16,North,1,0.0,0.0,51,0.00,CLR,OVC,0.00,WeatherDisplay:10.37,2013-03-27 20:10:00,
2013-03-27 15:15:00,46.6,29.4,30.16,North,1,0.0,0.0,51,0.00,CLR,OVC,0.00,WeatherDisplay:10.37,2013-03-27 20:15:00,
2013-03-27 15:20:00,46.6,29.4,30.16,North,1,0.0,0.0,51,0.00,CLR,OVC,0.00,WeatherDisplay:10.37,2013-03-27 20:20:00,
2013-03-27 15:25:00,46.9,30.2,30.15,North,1,0.0,0.0,52,0.00,CLR,OVC,0.00,WeatherDisplay:10.37,2013-03-27 20:25:00,
2013-03-27 15:30:00,46.9,29.7,30.16,North,1,0.0,0.0,51,0.00,CLR,OVC,0.00,WeatherDisplay:10.37,2013-03-27 20:30:00,
2013-03-27 15:35:00,46.8,30.0,30.15,North,1,0.0,0.0,52,0.00,CLR,OVC,0.00,WeatherDisplay:10.37,2013-03-27 20:35:00,
2013-03-27 15:40:00,47.1,30.4,30.15,North,1,0.0,0.0,52,0.00,CLR,OVC,0.00,WeatherDisplay:10.37,2013-03-27 20:40:00,
2013-03-27 15:45:00,47.1,30.4,30.14,North,1,0.0,0.0,52,0.00,CLR,OVC,0.00,WeatherDisplay:10.37,2013-03-27 20:45:00,
2013-03-27 15:50:00,47.3,30.5,30.14,North,1,0.0,0.0,52,0.00,CLR,OVC,0.00,WeatherDisplay:10.37,2013-03-27 20:50:00,
2013-03-27 15:55:00,47.5,30.7,30.14,North,1,0.0,0.0,52,0.00,CLR,OVC,0.00,WeatherDisplay:10.37,2013-03-27 20:55:00,
2013-03-27 16:00:00,47.5,31.2,30.15,North,1,0.0,0.0,53,0.00,CLR,OVC,0.00,WeatherDisplay:10.37,2013-03-27 21:00:00,
2013-03-27 16:05:00,47.8,31.5,30.15,North,1,0.0,0.0,53,0.00,CLR,OVC,0.00,WeatherDisplay:10.37,2013-03-27 21:05:00,
2013-03-27 16:10:00,48.0,31.2,30.15,North,1,0.0,0.0,52,0.00,CLR,OVC,0.00,WeatherDisplay:10.37,2013-03-27 21:10:00,
2013-03-27 16:15:00,47.8,31.0,30.15,North,1,0.0,0.0,52,0.00,CLR,OVC,0.00,WeatherDisplay:10.37,2013-03-27 21:15:00,
2013-03-27 16:20:00,48.0,31.7,30.15,North,1,0.0,0.0,53,0.00,CLR,OVC,0.00,WeatherDisplay:10.37,2013-03-27 21:20:00,
2013-03-27 16:25:00,48.4,31.5,30.15,North,1,0.0,0.0,52,0.00,CLR,OVC,0.00,WeatherDisplay:10.37,2013-03-27 21:25:00,
2013-03-27 16:30:00,48.4,31.5,30.15,North,1,0.0,0.0,52,0.00,CLR,OVC,0.00,WeatherDisplay:10.37,2013-03-27 21:30:00,
2013-03-27 16:35:00,48.7,31.9,30.15,North,1,0.0,0.0,52,0.00,CLR,OVC,0.00,WeatherDisplay:10.37,2013-03-27 21:35:00,
2013-03-27 16:40:00,48.9,32.0,30.15,North,1,0.0,0.0,52,0.00,CLR,OVC,0.00,WeatherDisplay:10.37,2013-03-27 21:40:00,
2013-03-27 16:45:00,48.9,32.0,30.15,North,1,0.0,0.0,52,0.00,CLR,OVC,0.00,WeatherDisplay:10.37,2013-03-27 21:45:00,
2013-03-27 16:50:00,48.9,32.0,30.15,North,1,0.0,0.0,52,0.00,CLR,OVC,0.00,WeatherDisplay:10.37,2013-03-27 21:50:00,
2013-03-27 16:55:00,48.9,32.0,30.15,North,1,0.0,0.0,52,0.00,CLR,OVC,0.00,WeatherDisplay:10.37,2013-03-27 21:55:00,
2013-03-27 17:00:00,49.5,33.0,30.15,North,1,0.0,0.0,53,0.00,CLR,OVC,0.00,WeatherDisplay:10.37,2013-03-27 22:00:00,
2013-03-27 17:05:00,49.5,32.6,30.15,North,1,0.0,0.0,52,0.00,CLR,OVC,0.00,WeatherDisplay:10.37,2013-03-27 22:05:00,
2013-03-27 17:10:00,49.5,33.0,30.15,North,1,0.0,0.0,53,0.00,CLR,OVC,0.00,WeatherDisplay:10.37,2013-03-27 22:10:00,
2013-03-27 17:15:00,49.6,33.2,30.15,North,1,0.0,0.0,53,0.00,CLR,OVC,0.00,WeatherDisplay:10.37,2013-03-27 22:15:00,
2013-03-27 17:20:00,49.6,33.2,30.15,North,1,0.0,0.0,53,0.00,CLR,OVC,0.00,WeatherDisplay:10.37,2013-03-27 22:20:00,
2013-03-27 17:25:00,49.8,33.4,30.15,North,1,0.0,0.0,53,0.00,CLR,OVC,0.00,WeatherDisplay:10.37,2013-03-27 22:25:00,
2013-03-27 17:30:00,49.8,33.4,30.16,North,1,0.0,0.0,53,0.00,CLR,OVC,0.00,WeatherDisplay:10.37,2013-03-27 22:30:00,
2013-03-27 17:35:00,49.8,33.4,30.16,North,1,0.0,0.0,53,0.00,CLR,OVC,0.00,WeatherDisplay:10.37,2013-03-27 22:35:00,
2013-03-27 17:40:00,49.8,33.4,30.16,North,1,0.0,0.0,53,0.00,CLR,OVC,0.00,WeatherDisplay:10.37,2013-03-27 22:40:00,
2013-03-27 17:45:00,50.0,33.1,30.16,North,1,0.0,0.0,52,0.00,CLR,OVC,0.00,WeatherDisplay:10.37,2013-03-27 22:45:00,
2013-03-27 17:50:00,49.8,32.4,30.16,North,1,0.0,0.0,51,0.00,CLR,OVC,0.00,WeatherDisplay:10.37,2013-03-27 22:50:00,
2013-03-27 17:55:00,49.6,32.2,30.16,North,1,0.0,0.0,51,0.00,CLR,OVC,0.00,WeatherDisplay:10.37,2013-03-27 22:55:00,
2013-03-27 18:00:00,49.6,32.7,30.16,North,1,0.0,0.0,52,0.00,CLR,OVC,0.00,WeatherDisplay:10.37,2013-03-27 23:00:00,
2013-03-27 18:05:00,49.5,32.6,30.16,North,1,0.0,0.0,52,0.00,CLR,OVC,0.00,WeatherDisplay:10.37,2013-03-27 23:05:00,
2013-03-27 18:10:00,49.3,32.9,30.16,North,1,0.0,0.0,53,0.00,CLR,OVC,0.00,WeatherDisplay:10.37,2013-03-27 23:10:00,
2013-03-27 18:15:00,49.3,32.9,30.15,North,1,0.0,0.0,53,0.00,CLR,OVC,0.00,WeatherDisplay:10.37,2013-03-27 23:15:00,
2013-03-27 18:20:00,49.1,32.7,30.16,North,1,0.0,0.0,53,0.00,CLR,OVC,0.00,WeatherDisplay:10.37,2013-03-27 23:20:00,
2013-03-27 18:25:00,48.9,32.5,30.15,North,1,0.0,0.0,53,0.00,CLR,OVC,0.00,WeatherDisplay:10.37,2013-03-27 23:25:00,
2013-03-27 18:30:00,48.7,32.4,30.15,North,1,0.0,0.0,53,0.00,CLR,OVC,0.00,WeatherDisplay:10.37,2013-03-27 23:30:00,
2013-03-27 18:35:00,48.6,32.2,30.15,North,1,0.0,0.0,53,0.00,CLR,OVC,0.00,WeatherDisplay:10.37,2013-03-27 23:35:00,
2013-03-27 18:40:00,48.2,31.9,30.15,North,1,0.0,0.0,53,0.00,CLR,OVC,0.00,WeatherDisplay:10.37,2013-03-27 23:40:00,
2013-03-27 18:45:00,48.2,31.9,30.15,North,1,0.0,0.0,53,0.00,CLR,OVC,0.00,WeatherDisplay:10.37,2013-03-27 23:45:00,
2013-03-27 18:50:00,47.7,31.8,30.15,North,1,0.0,0.0,54,0.00,CLR,OVC,0.00,WeatherDisplay:10.37,2013-03-27 23:50:00,
2013-03-27 18:55:00,47.1,31.8,30.15,North,1,0.0,0.0,55,0.00,CLR,OVC,0.00,WeatherDisplay:10.37,2013-03-27 23:55:00,
2013-03-27 19:00:00,46.9,31.6,30.15,North,1,0.0,0.0,55,0.00,CLR,OVC,0.00,WeatherDisplay:10.37,2013-03-28 00:00:00,
2013-03-27 19:05:00,46.6,31.3,30.15,North,1,0.0,0.0,55,0.00,CLR,OVC,0.00,WeatherDisplay:10.37,2013-03-28 00:05:00,
2013-03-27 19:10:00,46.6,31.3,30.15,North,1,0.0,0.0,55,0.00,CLR,OVC,0.00,WeatherDisplay:10.37,2013-03-28 00:10:00,
2013-03-27 19:15:00,46.2,31.4,30.15,North,1,0.0,0.0,56,0.00,CLR,OVC,0.00,WeatherDisplay:10.37,2013-03-28 00:15:00,
2013-03-27 19:20:00,45.9,31.0,30.15,North,1,0.0,0.0,56,0.00,CLR,OVC,0.00,WeatherDisplay:10.37,2013-03-28 00:20:00,
2013-03-27 19:25:00,45.3,30.5,30.15,North,1,0.0,0.0,56,0.00,CLR,OVC,0.00,WeatherDisplay:10.37,2013-03-28 00:25:00,
2013-03-27 19:30:00,45.3,31.0,30.15,North,1,0.0,0.0,57,0.00,CLR,OVC,0.00,WeatherDisplay:10.37,2013-03-28 00:30:00,
2013-03-27 19:35:00,44.8,30.5,30.15,North,1,0.0,0.0,57,0.00,CLR,OVC,0.00,WeatherDisplay:10.37,2013-03-28 00:35:00,
2013-03-27 19:40:00,44.4,30.1,30.15,North,1,0.0,0.0,57,0.00,CLR,OVC,0.00,WeatherDisplay:10.37,2013-03-28 00:40:00,
2013-03-27 19:45:00,44.2,30.4,30.15,North,1,0.0,0.0,58,0.00,CLR,OVC,0.00,WeatherDisplay:10.37,2013-03-28 00:45:00,
2013-03-27 19:50:00,44.1,30.2,30.16,North,1,0.0,0.0,58,0.00,CLR,OVC,0.00,WeatherDisplay:10.37,2013-03-28 00:50:00,
2013-03-27 19:55:00,43.9,30.0,30.16,North,1,0.0,0.0,58,0.00,CLR,OVC,0.00,WeatherDisplay:10.37,2013-03-28 00:55:00,
2013-03-27 20:00:00,43.5,30.1,30.16,North,1,0.0,0.0,59,0.00,CLR,OVC,0.00,WeatherDisplay:10.37,2013-03-28 01:00:00,
2013-03-27 20:05:00,43.3,30.0,30.16,North,1,0.0,0.0,59,0.00,CLR,OVC,0.00,WeatherDisplay:10.37,2013-03-28 01:05:00,
2013-03-27 20:10:00,43.2,29.8,30.16,North,1,0.0,0.0,59,0.00,CLR,OVC,0.00,WeatherDisplay:10.37,2013-03-28 01:10:00,
2013-03-27 20:15:00,43.0,30.0,30.16,North,1,0.0,0.0,60,0.00,CLR,OVC,0.00,WeatherDisplay:10.37,2013-03-28 01:15:00,
2013-03-27 20:20:00,42.8,29.9,30.16,North,1,0.0,0.0,60,0.00,CLR,OVC,0.00,WeatherDisplay:10.37,2013-03-28 01:20:00,
2013-03-27 20:25:00,42.6,29.7,30.16,North,1,0.0,0.0,60,0.00,CLR,OVC,0.00,WeatherDisplay:10.37,2013-03-28 01:25:00,
2013-03-27 20:30:00,42.6,30.1,30.17,North,1,0.0,0.0,61,0.00,CLR,OVC,0.00,WeatherDisplay:10.37,2013-03-28 01:30:00,
2013-03-27 20:35:00,42.4,29.9,30.17,North,1,0.0,0.0,61,0.00,CLR,OVC,0.00,WeatherDisplay:10.37,2013-03-28 01:35:00,
2013-03-27 20:40:00,42.4,29.9,30.17,North,1,0.0,0.0,61,0.00,CLR,OVC,0.00,WeatherDisplay:10.37,2013-03-28 01:40:00,
2013-03-27 20:45:00,42.4,30.3,30.17,North,1,0.0,0.0,62,0.00,CLR,OVC,0.00,WeatherDisplay:10.37,2013-03-28 01:45:00,
2013-03-27 20:50:00,42.1,30.0,30.17,North,1,0.0,0.0,62,0.00,CLR,OVC,0.00,WeatherDisplay:10.37,2013-03-28 01:50:00,
2013-03-27 20:55:00,42.1,30.4,30.17,North,1,0.0,0.0,63,0.00,CLR,OVC,0.00,WeatherDisplay:10.37,2013-03-28 01:55:00,
2013-03-27 21:00:00,42.1,30.4,30.17,North,1,0.0,0.0,63,0.00,CLR,OVC,0.00,WeatherDisplay:10.37,2013-03-28 02:00:00,
2013-03-27 21:05:00,41.7,30.0,30.17,North,1,0.0,0.0,63,0.00,CLR,OVC,0.00,WeatherDisplay:10.37,2013-03-28 02:05:00,
2013-03-27 21:10:00,41.7,30.0,30.17,North,1,0.0,0.0,63,0.00,CLR,OVC,0.00,WeatherDisplay:10.37,2013-03-28 02:10:00,
2013-03-27 21:15:00,41.7,30.0,30.17,North,1,0.0,0.0,63,0.00,CLR,OVC,0.00,WeatherDisplay:10.37,2013-03-28 02:15:00,
2013-03-27 21:20:00,41.7,29.6,30.17,North,1,0.0,0.0,62,0.00,CLR,OVC,0.00,WeatherDisplay:10.37,2013-03-28 02:20:00,
2013-03-27 21:25:00,41.5,29.5,30.18,North,1,0.0,0.0,62,0.00,CLR,OVC,0.00,WeatherDisplay:10.37,2013-03-28 02:25:00,
2013-03-27 21:30:00,41.5,29.5,30.18,North,1,0.0,0.0,62,0.00,CLR,OVC,0.00,WeatherDisplay:10.37,2013-03-28 02:30:00,
2013-03-27 21:35:00,41.4,29.3,30.18,North,1,0.0,0.0,62,0.00,CLR,OVC,0.00,WeatherDisplay:10.37,2013-03-28 02:35:00,
2013-03-27 21:40:00,41.2,29.1,30.18,North,1,0.0,0.0,62,0.00,CLR,OVC,0.00,WeatherDisplay:10.37,2013-03-28 02:40:00,
2013-03-27 21:45:00,41.2,29.1,30.18,North,1,0.0,0.0,62,0.00,CLR,OVC,0.00,WeatherDisplay:10.37,2013-03-28 02:45:00,
2013-03-27 21:50:00,41.2,29.1,30.18,North,1,0.0,0.0,62,0.00,CLR,OVC,0.00,WeatherDisplay:10.37,2013-03-28 02:50:00,
2013-03-27 21:55:00,41.0,29.0,30.19,North,1,0.0,0.0,62,0.00,CLR,OVC,0.00,WeatherDisplay:10.37,2013-03-28 02:55:00,
2013-03-27 22:00:00,41.0,29.0,30.19,North,1,0.0,0.0,62,0.00,CLR,OVC,0.00,WeatherDisplay:10.37,2013-03-28 03:00:00,
2013-03-27 22:05:00,41.0,29.0,30.19,North,1,0.0,0.0,62,0.00,CLR,OVC,0.00,WeatherDisplay:10.37,2013-03-28 03:05:00,
2013-03-27 22:10:00,41.0,29.0,30.19,North,1,0.0,0.0,62,0.00,CLR,OVC,0.00,WeatherDisplay:10.37,2013-03-28 03:10:00,
2013-03-27 22:15:00,40.8,28.8,30.19,North,1,0.0,0.0,62,0.00,CLR,OVC,0.00,WeatherDisplay:10.37,2013-03-28 03:15:00,
2013-03-27 22:20:00,40.8,28.8,30.19,North,1,0.0,0.0,62,0.00,CLR,OVC,0.00,WeatherDisplay:10.37,2013-03-28 03:20:00,
2013-03-27 22:25:00,40.6,28.6,30.18,North,1,0.0,0.0,62,0.00,CLR,OVC,0.00,WeatherDisplay:10.37,2013-03-28 03:25:00,
2013-03-27 22:30:00,40.6,28.6,30.18,North,1,0.0,0.0,62,0.00,CLR,OVC,0.00,WeatherDisplay:10.37,2013-03-28 03:30:00,
2013-03-27 22:35:00,40.6,28.6,30.18,North,1,0.0,0.0,62,0.00,CLR,OVC,0.00,WeatherDisplay:10.37,2013-03-28 03:35:00,
2013-03-27 22:40:00,40.3,28.3,30.18,North,1,0.0,0.0,62,0.00,CLR,OVC,0.00,WeatherDisplay:10.37,2013-03-28 03:40:00,
2013-03-27 22:45:00,40.3,28.3,30.18,North,1,0.0,0.0,62,0.00,CLR,OVC,0.00,WeatherDisplay:10.37,2013-03-28 03:45:00,
2013-03-27 22:50:00,40.1,28.5,30.18,North,1,0.0,0.0,63,0.00,CLR,OVC,0.00,WeatherDisplay:10.37,2013-03-28 03:50:00,
2013-03-27 22:55:00,39.9,28.3,30.18,North,1,0.0,0.0,63,0.00,CLR,OVC,0.00,WeatherDisplay:10.37,2013-03-28 03:55:00,
2013-03-27 23:00:00,39.9,28.3,30.18,North,1,0.0,0.0,63,0.00,CLR,OVC,0.00,WeatherDisplay:10.37,2013-03-28 04:00:00,
2013-03-27 23:05:00,39.9,28.3,30.19,North,1,0.0,0.0,63,0.00,CLR,OVC,0.00,WeatherDisplay:10.37,2013-03-28 04:05:00,
2013-03-27 23:10:00,39.9,28.3,30.19,North,1,0.0,0.0,63,0.00,CLR,OVC,0.00,WeatherDisplay:10.37,2013-03-28 04:10:00,
2013-03-27 23:15:00,39.9,28.3,30.18,North,1,0.0,0.0,63,0.00,CLR,OVC,0.00,WeatherDisplay:10.37,2013-03-28 04:15:00,
2013-03-27 23:20:00,39.9,28.3,30.18,North,1,0.0,0.0,63,0.00,CLR,OVC,0.00,WeatherDisplay:10.37,2013-03-28 04:20:00,
2013-03-27 23:25:00,39.9,28.3,30.18,North,1,0.0,0.0,63,0.00,CLR,OVC,0.00,WeatherDisplay:10.37,2013-03-28 04:25:00,
2013-03-27 23:30:00,39.9,28.3,30.18,North,1,0.0,0.0,63,0.00,CLR,OVC,0.00,WeatherDisplay:10.37,2013-03-28 04:30:00,
2013-03-27 23:35:00,39.9,28.3,30.18,North,1,0.0,0.0,63,0.00,CLR,OVC,0.00,WeatherDisplay:10.37,2013-03-28 04:35:00,
2013-03-27 23:40:00,39.9,28.3,30.18,North,1,0.0,0.0,63,0.00,CLR,OVC,0.00,WeatherDisplay:10.37,2013-03-28 04:40:00,
2013-03-27 23:45:00,39.9,28.3,30.18,North,1,0.0,0.0,63,0.00,CLR,OVC,0.00,WeatherDisplay:10.37,2013-03-28 04:45:00,
2013-03-27 23:50:00,39.7,28.5,30.18,North,1,0.0,0.0,64,0.00,CLR,OVC,0.00,WeatherDisplay:10.37,2013-03-28 04:50:00,
2013-03-27 23:55:00,39.7,28.5,30.18,North,1,0.0,0.0,64,0.00,CLR,OVC,0.00,WeatherDisplay:10.37,2013-03-28 04:55:00,